Main page
METAR-TAF:

METAR-TAF

Airports :

Valladolid Airport

Valladolid, Spain

latitude: 41-43N, longitude: 004-51W, elevation: 849 m

Current weather observation

The report was made 44 minutes ago, at 16:00 UTC
Wind 3 kt from the East/Southeast, varying between East/Northeast and South/Southeast
Temperature 16°C
Humidity 39%
Pressure 1029 hPa
Visibility 10 km or more
no clouds below 1500 m and no cumulonimbus

METAR: LEVD 211600Z 12003KT 060V160 CAVOK 16/02 Q1029

Time: 17:44 (16:44 UTC)

Forecast

The report was made 5 hours and 44 minutes ago, at 11:00 UTC
Forecast valid from 21 at 12 UTC to 22 at 12 UTC
Wind 4 kt from variable directions
Visibility 10 km or more
no clouds below 1500 m and no cumulonimbus
Probability 40% :
Temporary
from 21 at 12 UTC to 21 at 20 UTC
Wind 8 kt from the Northeast

TAF: LEVD 211100Z 2112/2212 VRB04KT CAVOK TX16/2116Z TNM01/2207Z PROB40 TEMPO 2112/2120 05008KT

Weather observations and forecasts of more than 4000 airports (METAR and TAF reports).

The available stations are represented by yellow and red dots on the map.

Hover mouse over dot to see the name of the station.

Then click to see weather observations and forecasts.

To change the map : click on the green buttons with a black cross to zoom in, on the green button with a dash to zoom out, or on the green arrows for adjacent maps.


METAR-TAF: